createdAt,value
2022-10-09T00:01:22.817Z,2.92
2022-10-09T00:06:24.812Z,2.20
2022-10-09T00:08:52.731Z,2.17
2022-10-09T00:11:28.479Z,2.22
2022-10-09T00:13:56.630Z,2.45
2022-10-09T00:16:24.332Z,2.90
2022-10-09T00:18:53.271Z,2.80
2022-10-09T00:21:32.408Z,2.47
2022-10-09T00:24:02.731Z,2.35
2022-10-09T00:26:30.268Z,2.13
2022-10-09T00:28:57.952Z,2.38
2022-10-09T00:31:25.679Z,2.63
2022-10-09T00:33:53.361Z,2.92
2022-10-09T00:36:23.928Z,2.35
2022-10-09T00:38:51.901Z,2.60
2022-10-09T00:41:25.165Z,2.35
2022-10-09T00:43:57.356Z,2.80
2022-10-09T00:46:42.151Z,2.20
2022-10-09T00:49:22.116Z,2.22
2022-10-09T00:51:51.379Z,2.40
2022-10-09T00:54:22.970Z,2.22
2022-10-09T00:56:51.115Z,2.45
2022-10-09T00:59:19.665Z,2.63
2022-10-09T01:01:47.258Z,2.53
2022-10-09T01:04:15.315Z,2.03
2022-10-09T01:07:07.237Z,2.10
2022-10-09T01:10:03.631Z,2.42
2022-10-09T01:12:52.117Z,1.95
2022-10-09T01:15:39.279Z,2.20
2022-10-09T01:18:36.281Z,2.35
2022-10-09T01:21:17.073Z,1.92
2022-10-09T01:24:06.067Z,1.58
2022-10-09T01:26:56.542Z,2.63
2022-10-09T01:29:27.061Z,3.25
2022-10-09T01:31:56.138Z,2.55
2022-10-09T01:34:24.239Z,2.00
2022-10-09T01:36:52.895Z,2.75
2022-10-09T01:39:22.819Z,2.25
2022-10-09T01:41:52.543Z,2.22
2022-10-09T01:44:23.327Z,2.80
2022-10-09T01:46:51.027Z,1.85
2022-10-09T01:49:39.338Z,2.65
2022-10-09T01:52:48.473Z,2.22
2022-10-09T01:55:35.930Z,2.25
2022-10-09T01:58:18.104Z,1.95
2022-10-09T02:01:16.662Z,2.20
2022-10-09T02:03:48.558Z,2.08
2022-10-09T02:06:18.019Z,2.10
2022-10-09T02:08:51.542Z,1.63
2022-10-09T02:11:19.418Z,2.00
2022-10-09T02:13:48.413Z,2.08
2022-10-09T02:16:15.787Z,2.25
2022-10-09T02:18:53.931Z,2.17
2022-10-09T02:21:24.737Z,2.20
2022-10-09T02:23:55.071Z,2.50
2022-10-09T02:26:23.220Z,2.95
2022-10-09T02:28:51.504Z,2.40
2022-10-09T02:31:30.356Z,2.22
2022-10-09T02:34:00.178Z,2.40
2022-10-09T02:36:28.512Z,2.17
2022-10-09T02:38:56.504Z,2.50
2022-10-09T02:41:24.778Z,2.25
2022-10-09T02:43:52.619Z,2.10
2022-10-09T02:46:20.219Z,1.80
2022-10-09T02:48:47.718Z,2.25
2022-10-09T02:51:15.805Z,1.98
2022-10-09T02:53:43.707Z,1.95
2022-10-09T02:56:11.420Z,2.55
2022-10-09T02:58:39.662Z,2.20
2022-10-09T03:01:07.242Z,2.28
2022-10-09T03:03:34.745Z,2.20
2022-10-09T03:06:05.464Z,1.95
2022-10-09T03:08:33.175Z,2.28
2022-10-09T03:11:00.592Z,2.25
2022-10-09T03:13:28.107Z,1.77
2022-10-09T03:15:55.563Z,2.75
2022-10-09T03:18:23.066Z,2.20
2022-10-09T03:20:50.445Z,1.98
2022-10-09T03:23:17.909Z,2.40
2022-10-09T03:25:45.271Z,2.17
2022-10-09T03:28:15.267Z,1.80
2022-10-09T03:30:42.796Z,3.53
2022-10-09T03:33:10.172Z,1.98
2022-10-09T03:35:37.619Z,2.15
2022-10-09T03:38:05.027Z,2.20
2022-10-09T03:40:32.544Z,2.60
2022-10-09T03:42:59.943Z,1.98
2022-10-09T03:45:27.398Z,1.92
2022-10-09T03:47:54.802Z,1.80
2022-10-09T03:50:22.235Z,1.98
2022-10-09T03:52:49.900Z,2.38
2022-10-09T03:55:17.597Z,1.73
2022-10-09T03:57:44.998Z,2.33
2022-10-09T04:00:13.025Z,2.28
2022-10-09T04:02:40.497Z,2.00
2022-10-09T04:05:08.646Z,2.10
2022-10-09T04:07:36.028Z,1.92
2022-10-09T04:10:04.427Z,1.88
2022-10-09T04:12:31.818Z,1.90
2022-10-09T04:14:59.310Z,3.45
2022-10-09T04:17:26.843Z,2.70
2022-10-09T04:19:54.208Z,2.63
2022-10-09T04:22:21.611Z,2.58
2022-10-09T04:24:49.071Z,2.28
2022-10-09T04:27:16.882Z,2.20
2022-10-09T04:29:44.311Z,1.90
2022-10-09T04:32:11.728Z,1.80
2022-10-09T04:34:39.233Z,2.50
2022-10-09T04:37:06.666Z,1.85
2022-10-09T04:39:34.047Z,2.33
2022-10-09T04:42:01.458Z,1.75
2022-10-09T04:44:28.898Z,2.00
2022-10-09T04:46:56.326Z,2.10
2022-10-09T04:49:23.732Z,2.17
2022-10-09T04:51:51.249Z,2.10
2022-10-09T04:54:18.747Z,2.55
2022-10-09T04:56:46.177Z,2.20
2022-10-09T04:59:13.644Z,2.10
2022-10-09T05:01:41.190Z,2.58
2022-10-09T05:04:09.231Z,2.97
2022-10-09T05:06:36.663Z,2.40
2022-10-09T05:09:04.381Z,1.90
2022-10-09T05:11:31.784Z,2.50
2022-10-09T05:13:59.776Z,2.10
2022-10-09T05:16:29.255Z,2.22
2022-10-09T05:18:59.083Z,1.90
2022-10-09T05:21:27.886Z,2.20
2022-10-09T05:23:55.779Z,2.28
2022-10-09T05:26:25.053Z,2.10
2022-10-09T05:28:52.780Z,2.15
2022-10-09T05:31:25.921Z,2.20
2022-10-09T05:33:55.119Z,2.20
2022-10-09T05:36:22.655Z,2.05
2022-10-09T05:38:53.043Z,2.47
2022-10-09T05:41:22.761Z,2.00
2022-10-09T05:43:50.430Z,2.20
2022-10-09T05:46:19.444Z,2.38
2022-10-09T05:48:53.259Z,2.47
2022-10-09T05:51:23.704Z,2.50
2022-10-09T05:53:51.445Z,3.10
2022-10-09T05:56:24.857Z,2.38
2022-10-09T05:58:55.235Z,2.50
2022-10-09T06:01:24.914Z,1.80
2022-10-09T06:03:55.695Z,2.40
2022-10-09T06:06:25.546Z,2.25
2022-10-09T06:08:53.665Z,2.60
2022-10-09T06:11:28.462Z,1.98
2022-10-09T06:13:56.656Z,2.80
2022-10-09T06:16:26.991Z,2.50
2022-10-09T06:18:56.004Z,2.35
2022-10-09T06:21:25.437Z,2.28
2022-10-09T06:23:55.858Z,2.67
2022-10-09T06:26:24.582Z,4.10
2022-10-09T06:28:53.150Z,5.18
2022-10-09T06:31:25.579Z,2.63
2022-10-09T06:33:54.211Z,2.58
2022-10-09T06:36:25.188Z,2.50
2022-10-09T06:38:53.809Z,3.00
2022-10-09T06:41:26.640Z,2.20
2022-10-09T06:44:04.415Z,3.13
2022-10-09T06:46:34.871Z,3.25
2022-10-09T06:49:03.842Z,2.85
2022-10-09T06:51:33.148Z,2.38
2022-10-09T06:54:02.695Z,2.50
2022-10-09T06:56:32.080Z,2.78
2022-10-09T06:59:01.405Z,2.83
2022-10-09T07:01:32.232Z,2.80
2022-10-09T07:04:03.011Z,2.60
2022-10-09T07:06:32.049Z,2.92
2022-10-09T07:09:05.485Z,2.40
2022-10-09T07:11:38.423Z,2.42
2022-10-09T07:14:09.716Z,2.78
2022-10-09T07:16:39.945Z,2.83
2022-10-09T07:19:11.290Z,2.50
2022-10-09T07:21:41.504Z,2.60
2022-10-09T07:24:09.538Z,2.72
2022-10-09T07:26:39.559Z,2.63
2022-10-09T07:29:09.220Z,2.63
2022-10-09T07:31:36.822Z,2.90
2022-10-09T07:34:06.349Z,2.97
2022-10-09T07:36:34.194Z,2.80
2022-10-09T07:39:02.714Z,2.40
2022-10-09T07:41:30.818Z,2.38
2022-10-09T07:43:58.729Z,2.90
2022-10-09T07:46:32.234Z,2.30
2022-10-09T07:49:02.078Z,2.30
2022-10-09T07:51:30.527Z,2.60
2022-10-09T07:54:00.083Z,2.65
2022-10-09T07:56:33.190Z,2.15
2022-10-09T07:59:26.859Z,7.65
2022-10-09T08:01:54.407Z,2.53
2022-10-09T08:04:22.091Z,2.92
2022-10-09T08:06:49.827Z,2.47
2022-10-09T08:09:18.492Z,3.50
2022-10-09T08:11:45.971Z,2.75
2022-10-09T08:14:19.015Z,2.60
2022-10-09T08:16:48.275Z,2.50
2022-10-09T08:19:15.825Z,2.72
2022-10-09T08:21:43.370Z,2.58
2022-10-09T08:24:11.666Z,2.38
2022-10-09T08:26:39.143Z,2.40
2022-10-09T08:29:13.828Z,2.85
2022-10-09T08:31:43.580Z,2.70
2022-10-09T08:34:12.171Z,2.38
2022-10-09T08:36:39.675Z,2.85
2022-10-09T08:39:07.219Z,2.40
2022-10-09T08:41:56.330Z,2.42
2022-10-09T08:44:50.482Z,2.60
2022-10-09T08:47:42.963Z,2.35
2022-10-09T08:50:16.687Z,2.90
2022-10-09T08:52:53.322Z,2.83
2022-10-09T08:55:27.568Z,2.30
2022-10-09T08:58:00.069Z,2.53
2022-10-09T09:00:46.159Z,2.78
2022-10-09T09:03:35.179Z,2.38
2022-10-09T09:06:46.432Z,2.50
2022-10-09T09:09:25.740Z,2.53
2022-10-09T09:12:17.383Z,2.47
2022-10-09T09:15:07.165Z,2.80
2022-10-09T09:17:50.231Z,1.95
2022-10-09T09:20:48.319Z,2.20
2022-10-09T09:23:16.661Z,2.50
2022-10-09T09:25:46.320Z,2.50
2022-10-09T09:28:16.964Z,2.60
2022-10-09T09:31:13.477Z,2.53
2022-10-09T09:33:53.214Z,2.28
2022-10-09T09:36:23.212Z,2.30
2022-10-09T09:39:36.266Z,2.47
2022-10-09T09:41:41.358Z,2.30
2022-10-09T09:44:13.813Z,2.70
2022-10-09T09:46:42.392Z,2.15
2022-10-09T09:49:21.480Z,2.08
2022-10-09T09:51:50.000Z,2.17
2022-10-09T09:54:26.744Z,2.38
2022-10-09T09:57:12.964Z,2.40
2022-10-09T09:59:44.043Z,2.35
2022-10-09T10:02:17.653Z,1.90
2022-10-09T10:05:06.525Z,2.30
2022-10-09T10:07:38.999Z,2.50
2022-10-09T10:10:08.168Z,1.98
2022-10-09T10:12:53.032Z,2.20
2022-10-09T10:15:27.459Z,2.08
2022-10-09T10:18:07.568Z,2.50
2022-10-09T10:20:54.996Z,2.28
2022-10-09T10:23:33.458Z,2.53
2022-10-09T10:26:15.091Z,2.30
2022-10-09T10:29:20.786Z,2.08
2022-10-09T10:31:59.727Z,2.38
2022-10-09T10:34:32.161Z,2.03
2022-10-09T10:37:06.221Z,1.92
2022-10-09T10:39:49.639Z,2.17
2022-10-09T10:42:32.141Z,2.10
2022-10-09T10:45:22.640Z,2.63
2022-10-09T10:47:54.400Z,2.10
2022-10-09T10:50:26.616Z,2.33
2022-10-09T10:53:20.435Z,2.13
2022-10-09T10:55:53.013Z,2.05
2022-10-09T10:58:30.719Z,2.20
2022-10-09T11:01:27.691Z,2.13
2022-10-09T11:04:39.903Z,2.13
2022-10-09T11:07:31.790Z,2.33
2022-10-09T11:10:17.787Z,2.05
2022-10-09T11:12:50.913Z,2.72
2022-10-09T11:15:21.397Z,2.28
2022-10-09T11:18:04.219Z,2.20
2022-10-09T11:21:04.203Z,3.00
2022-10-09T11:23:37.559Z,1.90
2022-10-09T11:26:31.064Z,2.72
2022-10-09T11:29:02.169Z,1.80
2022-10-09T11:31:35.912Z,2.10
2022-10-09T11:34:09.748Z,1.83
2022-10-09T11:36:42.391Z,1.75
2022-10-09T11:39:20.517Z,2.00
2022-10-09T11:41:51.338Z,2.42
2022-10-09T11:44:24.866Z,2.58
2022-10-09T11:47:02.893Z,1.90
2022-10-09T11:50:10.336Z,2.25
2022-10-09T11:52:58.896Z,1.80
2022-10-09T11:55:31.973Z,2.40
2022-10-09T11:58:26.133Z,2.50
2022-10-09T12:00:56.484Z,2.55
2022-10-09T12:03:35.961Z,2.65
2022-10-09T12:06:14.930Z,2.00
2022-10-09T12:08:54.964Z,2.67
2022-10-09T12:11:23.762Z,2.28
2022-10-09T12:13:56.169Z,2.45
2022-10-09T12:16:46.118Z,2.40
2022-10-09T12:19:23.426Z,2.53
2022-10-09T12:21:57.136Z,2.50
2022-10-09T12:24:27.979Z,3.03
2022-10-09T12:26:59.842Z,2.92
2022-10-09T12:29:50.799Z,2.80
2022-10-09T12:32:26.979Z,2.83
2022-10-09T12:34:55.819Z,2.70
2022-10-09T12:37:33.928Z,2.78
2022-10-09T12:40:26.863Z,2.50
2022-10-09T12:42:56.482Z,3.40
2022-10-09T12:45:31.171Z,3.00
2022-10-09T12:48:01.054Z,2.80
2022-10-09T12:50:33.526Z,2.92
2022-10-09T12:53:04.825Z,3.03
2022-10-09T12:55:34.941Z,3.63
2022-10-09T12:58:18.699Z,3.30
2022-10-09T13:00:50.430Z,3.65
2022-10-09T13:03:23.672Z,2.95
2022-10-09T13:05:52.185Z,3.15
2022-10-09T13:08:26.818Z,3.85
2022-10-09T13:10:55.656Z,4.60
2022-10-09T13:13:26.895Z,3.75
2022-10-09T13:16:07.006Z,3.58
2022-10-09T13:18:34.502Z,4.03
2022-10-09T13:21:24.546Z,3.42
2022-10-09T13:23:52.524Z,3.63
2022-10-09T13:26:28.732Z,3.63
2022-10-09T13:28:58.491Z,3.27
2022-10-09T13:31:26.601Z,5.53
2022-10-09T13:33:54.237Z,3.45
2022-10-09T13:36:21.732Z,4.35
2022-10-09T13:38:49.534Z,3.50
2022-10-09T13:41:23.788Z,3.58
2022-10-09T13:43:53.740Z,3.08
2022-10-09T13:46:21.300Z,3.08
2022-10-09T13:48:48.749Z,2.85
2022-10-09T13:51:16.196Z,2.63
2022-10-09T13:53:43.601Z,2.38
2022-10-09T13:56:11.183Z,2.08
2022-10-09T13:58:38.639Z,1.90
2022-10-09T14:01:08.801Z,3.58
2022-10-09T14:03:36.670Z,2.90
2022-10-09T14:06:04.450Z,2.65
2022-10-09T14:08:32.221Z,2.63
2022-10-09T14:11:00.927Z,2.15
2022-10-09T14:13:28.902Z,2.20
2022-10-09T14:15:56.339Z,2.53
2022-10-09T14:18:23.931Z,1.80
2022-10-09T14:20:51.412Z,2.42
2022-10-09T14:23:18.856Z,2.30
2022-10-09T14:25:46.373Z,2.25
2022-10-09T14:28:13.904Z,2.28
2022-10-09T14:30:42.657Z,3.15
2022-10-09T14:33:10.249Z,2.10
2022-10-09T14:35:38.374Z,4.10
2022-10-09T14:38:05.858Z,2.92
2022-10-09T14:40:33.282Z,2.67
2022-10-09T14:43:00.819Z,1.98
2022-10-09T14:45:29.139Z,1.80
2022-10-09T14:47:57.104Z,1.77
2022-10-09T14:50:24.569Z,2.25
2022-10-09T14:52:52.441Z,2.35
2022-10-09T14:55:20.058Z,2.22
2022-10-09T14:57:47.559Z,1.67
2022-10-09T15:00:15.461Z,1.83
2022-10-09T15:05:15.322Z,2.20
2022-10-09T15:07:43.479Z,2.60
2022-10-09T15:10:12.409Z,2.38
2022-10-09T15:12:40.632Z,3.05
2022-10-09T15:15:08.638Z,2.60
2022-10-09T15:17:36.233Z,2.40
2022-10-09T15:20:03.951Z,2.55
2022-10-09T15:22:31.374Z,2.38
2022-10-09T15:24:58.910Z,3.08
2022-10-09T15:27:26.477Z,2.80
2022-10-09T15:29:53.985Z,2.63
2022-10-09T15:32:21.499Z,3.35
2022-10-09T15:34:49.062Z,2.80
2022-10-09T15:37:16.586Z,2.65
2022-10-09T15:39:44.116Z,3.03
2022-10-09T15:42:11.602Z,3.83
2022-10-09T15:44:41.669Z,3.45
2022-10-09T15:47:09.336Z,3.30
2022-10-09T15:49:36.763Z,3.10
2022-10-09T15:52:04.382Z,3.50
2022-10-09T15:54:31.892Z,4.78
2022-10-09T15:56:59.453Z,3.00
2022-10-09T15:59:27.010Z,2.95
2022-10-09T16:01:54.492Z,4.40
2022-10-09T16:04:22.050Z,3.85
2022-10-09T16:06:49.563Z,3.13
2022-10-09T16:09:17.345Z,3.60
2022-10-09T16:11:44.854Z,4.32
2022-10-09T16:14:12.367Z,3.40
2022-10-09T16:16:39.829Z,3.10
2022-10-09T16:19:07.763Z,3.20
2022-10-09T16:21:35.248Z,4.65
2022-10-09T16:24:03.040Z,3.05
2022-10-09T16:26:30.579Z,3.45
2022-10-09T16:29:00.569Z,3.00
2022-10-09T16:31:32.005Z,4.50
2022-10-09T16:33:59.635Z,3.60
2022-10-09T16:36:27.691Z,3.63
2022-10-09T16:38:56.446Z,4.15
2022-10-09T16:41:24.427Z,4.20
2022-10-09T16:43:54.842Z,3.85
2022-10-09T16:46:22.748Z,4.85
2022-10-09T16:48:52.072Z,4.22
2022-10-09T16:51:24.999Z,4.30
2022-10-09T16:53:55.007Z,4.53
2022-10-09T16:56:25.161Z,4.60
2022-10-09T16:58:55.783Z,4.68
2022-10-09T17:01:24.348Z,4.00
2022-10-09T17:03:54.446Z,3.83
2022-10-09T17:06:25.015Z,4.47
2022-10-09T17:08:54.694Z,4.15
2022-10-09T17:11:22.926Z,4.10
2022-10-09T17:13:50.552Z,4.00
2022-10-09T17:16:21.804Z,4.55
2022-10-09T17:18:50.353Z,4.47
2022-10-09T17:21:19.081Z,4.43
2022-10-09T17:23:47.224Z,4.20
2022-10-09T17:26:19.804Z,4.10
2022-10-09T17:28:48.025Z,4.50
2022-10-09T17:31:22.089Z,4.05
2022-10-09T17:33:55.533Z,4.43
2022-10-09T17:36:26.029Z,3.88
2022-10-09T17:38:53.887Z,4.15
2022-10-09T17:41:26.485Z,4.43
2022-10-09T17:43:55.610Z,3.97
2022-10-09T17:46:24.146Z,4.13
2022-10-09T17:48:53.494Z,3.65
2022-10-09T17:51:25.469Z,3.92
2022-10-09T17:53:54.556Z,3.92
2022-10-09T17:56:22.444Z,4.30
2022-10-09T17:58:50.301Z,4.65
2022-10-09T18:01:18.362Z,3.88
2022-10-09T18:03:46.184Z,4.47
2022-10-09T18:06:18.792Z,3.97
2022-10-09T18:08:47.029Z,3.97
2022-10-09T18:11:16.893Z,3.65
2022-10-09T18:13:45.803Z,3.28
2022-10-09T18:16:16.459Z,3.15
2022-10-09T18:18:44.899Z,2.88
2022-10-09T18:21:17.022Z,3.15
2022-10-09T18:23:46.309Z,3.28
2022-10-09T18:26:17.056Z,2.88
2022-10-09T18:28:48.225Z,3.72
2022-10-09T18:31:19.504Z,3.50
2022-10-09T18:33:47.356Z,3.55
2022-10-09T18:36:20.558Z,2.92
2022-10-09T18:38:53.913Z,3.45
2022-10-09T18:41:23.258Z,2.88
2022-10-09T18:43:51.711Z,3.03
2022-10-09T18:46:25.980Z,3.72
2022-10-09T18:48:55.262Z,2.67
2022-10-09T18:51:26.547Z,3.22
2022-10-09T18:53:58.522Z,2.75
2022-10-09T18:56:26.247Z,2.78
2022-10-09T18:58:53.725Z,2.85
2022-10-09T19:01:21.285Z,2.88
2022-10-09T19:03:50.166Z,3.20
2022-10-09T19:06:19.295Z,3.30
2022-10-09T19:08:47.121Z,3.03
2022-10-09T19:11:17.074Z,3.00
2022-10-09T19:13:45.342Z,3.22
2022-10-09T19:16:12.937Z,3.20
2022-10-09T19:18:40.576Z,2.85
2022-10-09T19:21:13.415Z,3.70
2022-10-09T19:23:41.547Z,2.88
2022-10-09T19:26:09.090Z,3.13
2022-10-09T19:28:38.680Z,3.50
2022-10-09T19:31:08.146Z,3.35
2022-10-09T19:33:36.051Z,3.35
2022-10-09T19:36:04.233Z,3.58
2022-10-09T19:38:31.902Z,3.03
2022-10-09T19:41:11.377Z,2.85
2022-10-09T19:43:39.006Z,3.60
2022-10-09T19:46:09.614Z,2.67
2022-10-09T19:48:37.356Z,2.95
2022-10-09T19:51:09.755Z,3.30
2022-10-09T19:53:37.702Z,3.28
2022-10-09T19:56:33.155Z,3.35
2022-10-09T19:59:04.216Z,3.05
2022-10-09T20:01:35.488Z,3.22
2022-10-09T20:04:07.909Z,3.38
2022-10-09T20:06:40.955Z,3.40
2022-10-09T20:09:10.023Z,3.00
2022-10-09T20:11:37.927Z,3.78
2022-10-09T20:14:06.173Z,3.58
2022-10-09T20:16:33.886Z,4.10
2022-10-09T20:19:02.547Z,3.58
2022-10-09T20:21:32.633Z,2.88
2022-10-09T20:24:01.410Z,3.45
2022-10-09T20:26:31.514Z,3.67
2022-10-09T20:29:01.973Z,3.40
2022-10-09T20:31:30.774Z,3.47
2022-10-09T20:33:58.582Z,3.35
2022-10-09T20:36:32.603Z,3.88
2022-10-09T20:39:03.248Z,3.30
2022-10-09T20:41:31.961Z,3.20
2022-10-09T20:44:01.284Z,3.28
2022-10-09T20:46:31.320Z,3.35
2022-10-09T20:48:59.061Z,3.50
2022-10-09T20:51:29.447Z,3.30
2022-10-09T20:54:01.302Z,2.85
2022-10-09T20:56:30.845Z,3.60
2022-10-09T20:59:00.048Z,3.30
2022-10-09T21:01:28.808Z,3.35
2022-10-09T21:03:59.132Z,3.28
2022-10-09T21:06:27.125Z,3.20
2022-10-09T21:08:55.255Z,3.08
2022-10-09T21:11:25.840Z,3.30
2022-10-09T21:13:53.642Z,3.17
2022-10-09T21:16:24.204Z,3.20
2022-10-09T21:18:57.612Z,3.13
2022-10-09T21:21:25.663Z,2.78
2022-10-09T21:23:54.908Z,3.10
2022-10-09T21:26:23.457Z,2.40
2022-10-09T21:28:55.458Z,2.95
2022-10-09T21:31:28.674Z,2.88
2022-10-09T21:33:57.523Z,2.88
2022-10-09T21:36:36.814Z,2.42
2022-10-09T21:39:06.449Z,2.53
2022-10-09T21:41:35.330Z,2.60
2022-10-09T21:44:03.670Z,2.75
2022-10-09T21:46:31.238Z,2.83
2022-10-09T21:48:59.146Z,2.47
2022-10-09T21:51:27.852Z,2.15
2022-10-09T21:53:55.687Z,2.63
2022-10-09T21:56:23.402Z,2.17
2022-10-09T21:58:51.216Z,2.50
2022-10-09T22:01:18.948Z,2.50
2022-10-09T22:03:46.432Z,1.90
2022-10-09T22:06:19.271Z,1.65
2022-10-09T22:08:47.997Z,2.00
2022-10-09T22:11:16.216Z,1.83
2022-10-09T22:13:43.792Z,2.00
2022-10-09T22:16:13.962Z,2.10
2022-10-09T22:18:41.967Z,2.08
2022-10-09T22:21:15.106Z,2.15
2022-10-09T22:23:42.773Z,2.17
2022-10-09T22:26:19.595Z,2.35
2022-10-09T22:28:47.167Z,1.92
2022-10-09T22:31:18.001Z,2.10
2022-10-09T22:33:50.775Z,1.80
2022-10-09T22:36:20.611Z,1.98
2022-10-09T22:38:48.371Z,1.67
2022-10-09T22:41:18.302Z,1.80
2022-10-09T22:43:47.451Z,1.60
2022-10-09T22:46:21.030Z,1.75
2022-10-09T22:48:48.587Z,1.95
2022-10-09T22:51:17.815Z,2.08
2022-10-09T22:53:46.036Z,1.80
2022-10-09T22:56:25.445Z,2.00
2022-10-09T22:58:54.051Z,1.98
2022-10-09T23:01:30.067Z,2.05
2022-10-09T23:03:59.355Z,2.10
2022-10-09T23:06:27.115Z,1.80
2022-10-09T23:08:54.833Z,2.20
2022-10-09T23:11:23.383Z,1.98
2022-10-09T23:13:55.619Z,2.17
2022-10-09T23:16:24.204Z,1.85
2022-10-09T23:18:51.689Z,2.13
2022-10-09T23:21:20.962Z,1.83
2022-10-09T23:23:49.279Z,1.85
2022-10-09T23:26:20.251Z,2.00
2022-10-09T23:28:56.222Z,2.38
2022-10-09T23:31:24.331Z,1.95
2022-10-09T23:33:52.107Z,1.98
2022-10-09T23:36:21.741Z,2.00
2022-10-09T23:38:50.146Z,2.00
2022-10-09T23:41:20.391Z,2.38
2022-10-09T23:43:48.457Z,1.67
2022-10-09T23:46:23.534Z,1.98
2022-10-09T23:48:52.103Z,1.90
2022-10-09T23:51:21.142Z,1.90
2022-10-09T23:53:50.237Z,1.70
2022-10-09T23:56:18.993Z,1.90
2022-10-09T23:58:47.003Z,1.77
